sensor_id;sensor_type;location;lat;lon;timestamp;P1;durP1;ratioP1;P2;durP2;ratioP2
4555;SDS011;2290;48.674;9.018;2024-02-21T00:00:57;3.77;;;2.70;;
4555;SDS011;2290;48.674;9.018;2024-02-21T00:03:22;5.20;;;2.30;;
4555;SDS011;2290;48.674;9.018;2024-02-21T00:05:48;9.23;;;2.57;;
4555;SDS011;2290;48.674;9.018;2024-02-21T00:08:14;7.63;;;2.60;;
4555;SDS011;2290;48.674;9.018;2024-02-21T00:10:41;4.93;;;2.67;;
4555;SDS011;2290;48.674;9.018;2024-02-21T00:13:07;3.60;;;2.87;;
4555;SDS011;2290;48.674;9.018;2024-02-21T00:15:33;7.33;;;3.03;;
4555;SDS011;2290;48.674;9.018;2024-02-21T00:17:59;4.63;;;2.80;;
4555;SDS011;2290;48.674;9.018;2024-02-21T00:20:25;5.20;;;2.57;;
4555;SDS011;2290;48.674;9.018;2024-02-21T00:22:51;3.10;;;2.70;;
4555;SDS011;2290;48.674;9.018;2024-02-21T00:25:17;3.90;;;3.17;;
4555;SDS011;2290;48.674;9.018;2024-02-21T00:27:43;3.73;;;2.80;;
4555;SDS011;2290;48.674;9.018;2024-02-21T00:30:09;3.87;;;2.40;;
4555;SDS011;2290;48.674;9.018;2024-02-21T00:32:35;11.73;;;3.90;;
4555;SDS011;2290;48.674;9.018;2024-02-21T00:35:01;6.30;;;2.90;;
4555;SDS011;2290;48.674;9.018;2024-02-21T00:37:26;6.50;;;2.23;;
4555;SDS011;2290;48.674;9.018;2024-02-21T00:39:53;4.80;;;2.20;;
4555;SDS011;2290;48.674;9.018;2024-02-21T00:42:19;5.50;;;2.80;;
4555;SDS011;2290;48.674;9.018;2024-02-21T00:44:45;5.53;;;2.20;;
4555;SDS011;2290;48.674;9.018;2024-02-21T00:47:12;6.17;;;2.87;;
4555;SDS011;2290;48.674;9.018;2024-02-21T00:49:37;8.73;;;2.50;;
4555;SDS011;2290;48.674;9.018;2024-02-21T00:52:03;4.77;;;2.20;;
4555;SDS011;2290;48.674;9.018;2024-02-21T00:54:28;8.67;;;2.40;;
4555;SDS011;2290;48.674;9.018;2024-02-21T00:56:54;9.47;;;2.80;;
4555;SDS011;2290;48.674;9.018;2024-02-21T00:59:20;2.40;;;2.07;;
4555;SDS011;2290;48.674;9.018;2024-02-21T01:01:45;3.50;;;2.43;;
4555;SDS011;2290;48.674;9.018;2024-02-21T01:04:11;3.80;;;2.20;;
4555;SDS011;2290;48.674;9.018;2024-02-21T01:06:36;8.13;;;2.70;;
4555;SDS011;2290;48.674;9.018;2024-02-21T01:09:02;3.50;;;2.67;;
4555;SDS011;2290;48.674;9.018;2024-02-21T01:11:28;4.37;;;2.80;;
4555;SDS011;2290;48.674;9.018;2024-02-21T01:13:54;5.80;;;2.20;;
4555;SDS011;2290;48.674;9.018;2024-02-21T01:16:20;4.87;;;2.60;;
4555;SDS011;2290;48.674;9.018;2024-02-21T01:18:46;5.40;;;3.37;;
4555;SDS011;2290;48.674;9.018;2024-02-21T01:21:11;5.63;;;2.10;;
4555;SDS011;2290;48.674;9.018;2024-02-21T01:23:38;10.10;;;2.70;;
4555;SDS011;2290;48.674;9.018;2024-02-21T01:26:04;3.97;;;2.13;;
4555;SDS011;2290;48.674;9.018;2024-02-21T01:28:31;4.93;;;2.60;;
4555;SDS011;2290;48.674;9.018;2024-02-21T01:30:57;4.53;;;2.10;;
4555;SDS011;2290;48.674;9.018;2024-02-21T01:33:24;7.20;;;2.83;;
4555;SDS011;2290;48.674;9.018;2024-02-21T01:35:50;5.57;;;3.00;;
4555;SDS011;2290;48.674;9.018;2024-02-21T01:38:15;4.73;;;2.40;;
4555;SDS011;2290;48.674;9.018;2024-02-21T01:40:41;5.00;;;2.70;;
4555;SDS011;2290;48.674;9.018;2024-02-21T01:43:16;7.10;;;2.30;;
4555;SDS011;2290;48.674;9.018;2024-02-21T01:45:46;4.70;;;2.33;;
4555;SDS011;2290;48.674;9.018;2024-02-21T01:48:15;6.47;;;3.07;;
4555;SDS011;2290;48.674;9.018;2024-02-21T01:50:43;7.33;;;2.67;;
4555;SDS011;2290;48.674;9.018;2024-02-21T01:53:16;3.47;;;2.63;;
4555;SDS011;2290;48.674;9.018;2024-02-21T01:55:45;5.03;;;2.47;;
4555;SDS011;2290;48.674;9.018;2024-02-21T01:58:15;4.43;;;2.20;;
4555;SDS011;2290;48.674;9.018;2024-02-21T02:00:44;7.80;;;3.37;;
4555;SDS011;2290;48.674;9.018;2024-02-21T02:03:12;4.70;;;2.60;;
4555;SDS011;2290;48.674;9.018;2024-02-21T02:05:42;4.27;;;2.17;;
4555;SDS011;2290;48.674;9.018;2024-02-21T02:08:13;7.73;;;2.70;;
4555;SDS011;2290;48.674;9.018;2024-02-21T02:10:44;5.83;;;2.43;;
4555;SDS011;2290;48.674;9.018;2024-02-21T02:13:10;4.80;;;2.57;;
4555;SDS011;2290;48.674;9.018;2024-02-21T02:18:10;7.43;;;2.57;;
4555;SDS011;2290;48.674;9.018;2024-02-21T02:20:37;5.60;;;3.00;;
4555;SDS011;2290;48.674;9.018;2024-02-21T02:25:33;4.80;;;2.67;;
4555;SDS011;2290;48.674;9.018;2024-02-21T02:27:59;5.40;;;2.90;;
4555;SDS011;2290;48.674;9.018;2024-02-21T02:30:25;4.10;;;2.50;;
4555;SDS011;2290;48.674;9.018;2024-02-21T02:32:50;5.47;;;3.03;;
4555;SDS011;2290;48.674;9.018;2024-02-21T02:35:16;3.20;;;2.40;;
4555;SDS011;2290;48.674;9.018;2024-02-21T02:37:47;5.83;;;2.77;;
4555;SDS011;2290;48.674;9.018;2024-02-21T02:40:14;3.40;;;2.37;;
4555;SDS011;2290;48.674;9.018;2024-02-21T02:42:40;10.67;;;4.33;;
4555;SDS011;2290;48.674;9.018;2024-02-21T02:45:06;5.80;;;3.20;;
4555;SDS011;2290;48.674;9.018;2024-02-21T02:47:33;6.60;;;2.67;;
4555;SDS011;2290;48.674;9.018;2024-02-21T02:49:59;9.60;;;2.90;;
4555;SDS011;2290;48.674;9.018;2024-02-21T02:52:25;4.20;;;2.40;;
4555;SDS011;2290;48.674;9.018;2024-02-21T02:54:52;16.53;;;3.77;;
4555;SDS011;2290;48.674;9.018;2024-02-21T02:57:20;6.43;;;2.60;;
4555;SDS011;2290;48.674;9.018;2024-02-21T02:59:50;7.33;;;2.90;;
4555;SDS011;2290;48.674;9.018;2024-02-21T03:02:18;5.83;;;2.47;;
4555;SDS011;2290;48.674;9.018;2024-02-21T03:04:43;4.90;;;2.60;;
4555;SDS011;2290;48.674;9.018;2024-02-21T03:07:10;5.07;;;2.90;;
4555;SDS011;2290;48.674;9.018;2024-02-21T03:09:39;4.93;;;2.50;;
4555;SDS011;2290;48.674;9.018;2024-02-21T03:12:08;3.93;;;2.67;;
4555;SDS011;2290;48.674;9.018;2024-02-21T03:14:34;8.73;;;2.70;;
4555;SDS011;2290;48.674;9.018;2024-02-21T03:17:01;3.30;;;2.60;;
4555;SDS011;2290;48.674;9.018;2024-02-21T03:19:28;5.60;;;2.80;;
4555;SDS011;2290;48.674;9.018;2024-02-21T03:21:54;7.63;;;2.73;;
4555;SDS011;2290;48.674;9.018;2024-02-21T03:24:21;6.73;;;2.80;;
4555;SDS011;2290;48.674;9.018;2024-02-21T03:26:47;5.30;;;2.50;;
4555;SDS011;2290;48.674;9.018;2024-02-21T03:29:14;9.47;;;2.87;;
4555;SDS011;2290;48.674;9.018;2024-02-21T03:31:41;3.67;;;2.47;;
4555;SDS011;2290;48.674;9.018;2024-02-21T03:34:09;5.27;;;2.47;;
4555;SDS011;2290;48.674;9.018;2024-02-21T03:36:35;3.80;;;2.30;;
4555;SDS011;2290;48.674;9.018;2024-02-21T03:39:01;4.20;;;2.33;;
4555;SDS011;2290;48.674;9.018;2024-02-21T03:41:27;16.90;;;2.57;;
4555;SDS011;2290;48.674;9.018;2024-02-21T03:43:53;4.83;;;2.17;;
4555;SDS011;2290;48.674;9.018;2024-02-21T03:46:20;5.83;;;2.30;;
4555;SDS011;2290;48.674;9.018;2024-02-21T03:48:47;7.97;;;2.57;;
4555;SDS011;2290;48.674;9.018;2024-02-21T03:51:13;6.03;;;2.30;;
4555;SDS011;2290;48.674;9.018;2024-02-21T03:53:40;2.67;;;2.07;;
4555;SDS011;2290;48.674;9.018;2024-02-21T03:56:06;3.80;;;2.27;;
4555;SDS011;2290;48.674;9.018;2024-02-21T03:58:33;5.03;;;2.07;;
4555;SDS011;2290;48.674;9.018;2024-02-21T04:01:01;5.17;;;2.73;;
4555;SDS011;2290;48.674;9.018;2024-02-21T04:03:28;3.83;;;2.17;;
4555;SDS011;2290;48.674;9.018;2024-02-21T04:05:55;4.00;;;2.30;;
4555;SDS011;2290;48.674;9.018;2024-02-21T04:08:22;5.43;;;2.30;;
4555;SDS011;2290;48.674;9.018;2024-02-21T04:10:49;3.27;;;2.00;;
4555;SDS011;2290;48.674;9.018;2024-02-21T04:13:14;6.57;;;2.80;;
4555;SDS011;2290;48.674;9.018;2024-02-21T04:15:40;2.43;;;2.23;;
4555;SDS011;2290;48.674;9.018;2024-02-21T04:18:08;3.30;;;2.70;;
4555;SDS011;2290;48.674;9.018;2024-02-21T04:20:34;6.23;;;2.20;;
4555;SDS011;2290;48.674;9.018;2024-02-21T04:23:01;4.60;;;2.00;;
4555;SDS011;2290;48.674;9.018;2024-02-21T04:25:26;4.13;;;2.40;;
4555;SDS011;2290;48.674;9.018;2024-02-21T04:27:53;9.77;;;2.67;;
4555;SDS011;2290;48.674;9.018;2024-02-21T04:30:22;8.30;;;2.57;;
4555;SDS011;2290;48.674;9.018;2024-02-21T04:32:47;3.13;;;2.30;;
4555;SDS011;2290;48.674;9.018;2024-02-21T04:35:13;4.80;;;2.90;;
4555;SDS011;2290;48.674;9.018;2024-02-21T04:37:38;5.13;;;2.60;;
4555;SDS011;2290;48.674;9.018;2024-02-21T04:40:04;6.17;;;2.83;;
4555;SDS011;2290;48.674;9.018;2024-02-21T04:42:32;2.10;;;1.90;;
4555;SDS011;2290;48.674;9.018;2024-02-21T04:44:57;7.70;;;2.80;;
4555;SDS011;2290;48.674;9.018;2024-02-21T04:47:24;4.93;;;2.30;;
4555;SDS011;2290;48.674;9.018;2024-02-21T04:49:50;9.07;;;2.53;;
4555;SDS011;2290;48.674;9.018;2024-02-21T04:52:18;4.97;;;2.07;;
4555;SDS011;2290;48.674;9.018;2024-02-21T04:54:44;5.53;;;2.37;;
4555;SDS011;2290;48.674;9.018;2024-02-21T04:57:11;5.43;;;2.67;;
4555;SDS011;2290;48.674;9.018;2024-02-21T04:59:36;3.63;;;2.27;;
4555;SDS011;2290;48.674;9.018;2024-02-21T05:02:03;4.93;;;2.23;;
4555;SDS011;2290;48.674;9.018;2024-02-21T05:04:30;6.43;;;2.17;;
4555;SDS011;2290;48.674;9.018;2024-02-21T05:06:55;3.70;;;2.03;;
4555;SDS011;2290;48.674;9.018;2024-02-21T05:09:21;4.00;;;2.20;;
4555;SDS011;2290;48.674;9.018;2024-02-21T05:11:46;3.77;;;2.17;;
4555;SDS011;2290;48.674;9.018;2024-02-21T05:14:12;6.37;;;2.47;;
4555;SDS011;2290;48.674;9.018;2024-02-21T05:16:38;6.50;;;2.50;;
4555;SDS011;2290;48.674;9.018;2024-02-21T05:19:06;6.60;;;2.63;;
4555;SDS011;2290;48.674;9.018;2024-02-21T05:21:31;4.20;;;1.90;;
4555;SDS011;2290;48.674;9.018;2024-02-21T05:23:58;7.17;;;2.23;;
4555;SDS011;2290;48.674;9.018;2024-02-21T05:26:26;3.43;;;2.23;;
4555;SDS011;2290;48.674;9.018;2024-02-21T05:28:52;2.33;;;2.00;;
4555;SDS011;2290;48.674;9.018;2024-02-21T05:31:24;5.63;;;2.10;;
4555;SDS011;2290;48.674;9.018;2024-02-21T05:33:50;2.93;;;2.40;;
4555;SDS011;2290;48.674;9.018;2024-02-21T05:36:16;4.20;;;2.03;;
4555;SDS011;2290;48.674;9.018;2024-02-21T05:38:42;4.63;;;1.93;;
4555;SDS011;2290;48.674;9.018;2024-02-21T05:41:07;5.10;;;2.27;;
4555;SDS011;2290;48.674;9.018;2024-02-21T05:43:33;4.00;;;2.10;;
4555;SDS011;2290;48.674;9.018;2024-02-21T05:46:00;3.77;;;2.27;;
4555;SDS011;2290;48.674;9.018;2024-02-21T05:48:25;3.67;;;1.90;;
4555;SDS011;2290;48.674;9.018;2024-02-21T05:50:51;5.23;;;2.10;;
4555;SDS011;2290;48.674;9.018;2024-02-21T05:53:16;3.53;;;2.20;;
4555;SDS011;2290;48.674;9.018;2024-02-21T05:55:42;4.57;;;2.50;;
4555;SDS011;2290;48.674;9.018;2024-02-21T05:58:08;4.20;;;2.30;;
4555;SDS011;2290;48.674;9.018;2024-02-21T06:00:38;4.03;;;2.03;;
4555;SDS011;2290;48.674;9.018;2024-02-21T06:03:04;6.50;;;2.40;;
4555;SDS011;2290;48.674;9.018;2024-02-21T06:05:30;4.20;;;2.10;;
4555;SDS011;2290;48.674;9.018;2024-02-21T06:07:58;4.93;;;1.90;;
4555;SDS011;2290;48.674;9.018;2024-02-21T06:10:23;8.30;;;2.30;;
4555;SDS011;2290;48.674;9.018;2024-02-21T06:12:49;6.87;;;2.20;;
4555;SDS011;2290;48.674;9.018;2024-02-21T06:15:15;4.93;;;3.30;;
4555;SDS011;2290;48.674;9.018;2024-02-21T06:17:40;2.33;;;1.60;;
4555;SDS011;2290;48.674;9.018;2024-02-21T06:20:06;5.83;;;2.53;;
4555;SDS011;2290;48.674;9.018;2024-02-21T06:22:34;5.63;;;2.63;;
4555;SDS011;2290;48.674;9.018;2024-02-21T06:25:00;6.60;;;2.37;;
4555;SDS011;2290;48.674;9.018;2024-02-21T06:27:25;6.20;;;2.13;;
4555;SDS011;2290;48.674;9.018;2024-02-21T06:29:51;5.77;;;2.50;;
4555;SDS011;2290;48.674;9.018;2024-02-21T06:32:16;5.90;;;2.40;;
4555;SDS011;2290;48.674;9.018;2024-02-21T06:34:42;5.80;;;2.17;;
4555;SDS011;2290;48.674;9.018;2024-02-21T06:37:08;2.70;;;2.13;;
4555;SDS011;2290;48.674;9.018;2024-02-21T06:39:34;3.30;;;1.97;;
4555;SDS011;2290;48.674;9.018;2024-02-21T06:42:02;6.60;;;2.20;;
4555;SDS011;2290;48.674;9.018;2024-02-21T06:44:28;6.33;;;2.10;;
4555;SDS011;2290;48.674;9.018;2024-02-21T06:46:53;4.30;;;1.83;;
4555;SDS011;2290;48.674;9.018;2024-02-21T06:49:20;3.33;;;2.20;;
4555;SDS011;2290;48.674;9.018;2024-02-21T06:51:46;2.57;;;1.77;;
4555;SDS011;2290;48.674;9.018;2024-02-21T06:54:11;5.00;;;2.30;;
4555;SDS011;2290;48.674;9.018;2024-02-21T06:56:37;6.23;;;1.80;;
4555;SDS011;2290;48.674;9.018;2024-02-21T06:59:03;2.37;;;1.60;;
4555;SDS011;2290;48.674;9.018;2024-02-21T07:01:29;4.87;;;2.13;;
4555;SDS011;2290;48.674;9.018;2024-02-21T07:03:55;4.77;;;2.63;;
4555;SDS011;2290;48.674;9.018;2024-02-21T07:06:21;4.60;;;2.20;;
4555;SDS011;2290;48.674;9.018;2024-02-21T07:08:46;4.60;;;2.03;;
4555;SDS011;2290;48.674;9.018;2024-02-21T07:11:12;3.43;;;2.00;;
4555;SDS011;2290;48.674;9.018;2024-02-21T07:13:38;4.80;;;1.90;;
4555;SDS011;2290;48.674;9.018;2024-02-21T07:16:03;3.13;;;2.17;;
4555;SDS011;2290;48.674;9.018;2024-02-21T07:18:31;4.23;;;2.10;;
4555;SDS011;2290;48.674;9.018;2024-02-21T07:20:56;5.17;;;2.40;;
4555;SDS011;2290;48.674;9.018;2024-02-21T07:23:23;5.57;;;2.10;;
4555;SDS011;2290;48.674;9.018;2024-02-21T07:25:49;3.80;;;2.23;;
4555;SDS011;2290;48.674;9.018;2024-02-21T07:28:15;2.60;;;2.00;;
4555;SDS011;2290;48.674;9.018;2024-02-21T07:30:41;3.30;;;2.30;;
4555;SDS011;2290;48.674;9.018;2024-02-21T07:33:07;6.50;;;2.50;;
4555;SDS011;2290;48.674;9.018;2024-02-21T07:35:33;4.00;;;2.80;;
4555;SDS011;2290;48.674;9.018;2024-02-21T07:37:58;8.17;;;2.10;;
4555;SDS011;2290;48.674;9.018;2024-02-21T07:40:24;4.17;;;2.53;;
4555;SDS011;2290;48.674;9.018;2024-02-21T07:42:50;4.27;;;1.93;;
4555;SDS011;2290;48.674;9.018;2024-02-21T07:45:18;3.73;;;2.20;;
4555;SDS011;2290;48.674;9.018;2024-02-21T07:47:46;7.83;;;2.43;;
4555;SDS011;2290;48.674;9.018;2024-02-21T07:50:12;3.23;;;2.37;;
4555;SDS011;2290;48.674;9.018;2024-02-21T07:52:39;3.87;;;2.43;;
4555;SDS011;2290;48.674;9.018;2024-02-21T07:55:05;5.23;;;2.63;;
4555;SDS011;2290;48.674;9.018;2024-02-21T07:57:32;5.00;;;2.07;;
4555;SDS011;2290;48.674;9.018;2024-02-21T07:59:58;9.43;;;2.30;;
4555;SDS011;2290;48.674;9.018;2024-02-21T08:02:25;4.77;;;2.60;;
4555;SDS011;2290;48.674;9.018;2024-02-21T08:04:50;6.43;;;2.40;;
4555;SDS011;2290;48.674;9.018;2024-02-21T08:07:16;3.40;;;2.10;;
4555;SDS011;2290;48.674;9.018;2024-02-21T08:09:41;4.40;;;2.30;;
4555;SDS011;2290;48.674;9.018;2024-02-21T08:12:07;2.77;;;1.93;;
4555;SDS011;2290;48.674;9.018;2024-02-21T08:14:33;4.47;;;2.40;;
4555;SDS011;2290;48.674;9.018;2024-02-21T08:16:58;4.93;;;2.20;;
4555;SDS011;2290;48.674;9.018;2024-02-21T08:19:24;4.63;;;2.30;;
4555;SDS011;2290;48.674;9.018;2024-02-21T08:21:51;4.47;;;2.37;;
4555;SDS011;2290;48.674;9.018;2024-02-21T08:24:16;6.87;;;2.60;;
4555;SDS011;2290;48.674;9.018;2024-02-21T08:26:42;4.37;;;2.67;;
4555;SDS011;2290;48.674;9.018;2024-02-21T08:29:10;5.10;;;2.63;;
4555;SDS011;2290;48.674;9.018;2024-02-21T08:31:37;4.73;;;2.77;;
4555;SDS011;2290;48.674;9.018;2024-02-21T08:34:02;3.40;;;2.37;;
4555;SDS011;2290;48.674;9.018;2024-02-21T08:36:29;2.90;;;2.40;;
4555;SDS011;2290;48.674;9.018;2024-02-21T08:38:58;7.67;;;2.17;;
4555;SDS011;2290;48.674;9.018;2024-02-21T08:41:25;4.50;;;3.00;;
4555;SDS011;2290;48.674;9.018;2024-02-21T08:43:51;3.83;;;2.47;;
4555;SDS011;2290;48.674;9.018;2024-02-21T08:46:18;7.60;;;2.77;;
4555;SDS011;2290;48.674;9.018;2024-02-21T08:48:49;3.37;;;2.20;;
4555;SDS011;2290;48.674;9.018;2024-02-21T08:51:17;5.30;;;2.43;;
4555;SDS011;2290;48.674;9.018;2024-02-21T08:53:43;4.17;;;2.20;;
4555;SDS011;2290;48.674;9.018;2024-02-21T08:56:10;4.17;;;2.33;;
4555;SDS011;2290;48.674;9.018;2024-02-21T08:58:38;5.13;;;2.17;;
4555;SDS011;2290;48.674;9.018;2024-02-21T09:01:04;2.67;;;2.13;;
4555;SDS011;2290;48.674;9.018;2024-02-21T09:03:36;6.43;;;2.43;;
4555;SDS011;2290;48.674;9.018;2024-02-21T09:06:07;3.30;;;1.87;;
4555;SDS011;2290;48.674;9.018;2024-02-21T09:08:33;3.10;;;2.13;;
4555;SDS011;2290;48.674;9.018;2024-02-21T09:11:02;4.70;;;1.80;;
4555;SDS011;2290;48.674;9.018;2024-02-21T09:13:29;3.83;;;1.93;;
4555;SDS011;2290;48.674;9.018;2024-02-21T09:15:55;10.03;;;2.73;;
4555;SDS011;2290;48.674;9.018;2024-02-21T09:18:20;7.20;;;2.57;;
4555;SDS011;2290;48.674;9.018;2024-02-21T09:20:46;3.93;;;2.33;;
4555;SDS011;2290;48.674;9.018;2024-02-21T09:23:12;6.77;;;2.00;;
4555;SDS011;2290;48.674;9.018;2024-02-21T09:25:38;3.77;;;1.87;;
4555;SDS011;2290;48.674;9.018;2024-02-21T09:28:05;7.60;;;2.20;;
4555;SDS011;2290;48.674;9.018;2024-02-21T09:30:31;3.33;;;1.73;;
4555;SDS011;2290;48.674;9.018;2024-02-21T09:32:57;2.23;;;1.80;;
4555;SDS011;2290;48.674;9.018;2024-02-21T09:35:26;5.77;;;2.13;;
4555;SDS011;2290;48.674;9.018;2024-02-21T09:37:52;7.30;;;2.10;;
4555;SDS011;2290;48.674;9.018;2024-02-21T09:40:24;5.20;;;2.20;;
4555;SDS011;2290;48.674;9.018;2024-02-21T09:42:56;2.97;;;2.00;;
4555;SDS011;2290;48.674;9.018;2024-02-21T09:45:35;4.07;;;2.33;;
4555;SDS011;2290;48.674;9.018;2024-02-21T09:50:56;3.60;;;2.40;;
4555;SDS011;2290;48.674;9.018;2024-02-21T09:53:24;3.20;;;1.83;;
4555;SDS011;2290;48.674;9.018;2024-02-21T09:55:51;7.03;;;2.17;;
4555;SDS011;2290;48.674;9.018;2024-02-21T09:58:19;2.57;;;1.70;;
4555;SDS011;2290;48.674;9.018;2024-02-21T10:00:44;2.63;;;1.70;;
4555;SDS011;2290;48.674;9.018;2024-02-21T10:03:10;3.53;;;1.80;;
4555;SDS011;2290;48.674;9.018;2024-02-21T10:05:37;6.70;;;2.57;;
4555;SDS011;2290;48.674;9.018;2024-02-21T10:08:04;7.40;;;2.33;;
4555;SDS011;2290;48.674;9.018;2024-02-21T10:10:40;10.20;;;2.20;;
4555;SDS011;2290;48.674;9.018;2024-02-21T10:13:09;4.63;;;2.27;;
4555;SDS011;2290;48.674;9.018;2024-02-21T10:15:59;3.50;;;1.90;;
4555;SDS011;2290;48.674;9.018;2024-02-21T10:18:32;4.90;;;1.93;;
4555;SDS011;2290;48.674;9.018;2024-02-21T10:21:04;3.60;;;2.03;;
4555;SDS011;2290;48.674;9.018;2024-02-21T10:23:40;3.80;;;1.67;;
4555;SDS011;2290;48.674;9.018;2024-02-21T10:26:09;4.10;;;1.90;;
4555;SDS011;2290;48.674;9.018;2024-02-21T10:28:34;3.60;;;1.60;;
4555;SDS011;2290;48.674;9.018;2024-02-21T10:31:01;3.60;;;2.10;;
4555;SDS011;2290;48.674;9.018;2024-02-21T10:33:27;5.60;;;1.93;;
4555;SDS011;2290;48.674;9.018;2024-02-21T10:35:55;3.87;;;1.73;;
4555;SDS011;2290;48.674;9.018;2024-02-21T10:38:35;3.73;;;2.00;;
4555;SDS011;2290;48.674;9.018;2024-02-21T10:41:05;4.27;;;2.37;;
4555;SDS011;2290;48.674;9.018;2024-02-21T10:43:40;2.23;;;1.80;;
4555;SDS011;2290;48.674;9.018;2024-02-21T10:46:07;2.40;;;2.13;;
4555;SDS011;2290;48.674;9.018;2024-02-21T10:48:38;9.90;;;2.13;;
4555;SDS011;2290;48.674;9.018;2024-02-21T10:56:36;2.80;;;1.70;;
4555;SDS011;2290;48.674;9.018;2024-02-21T10:59:06;5.27;;;1.30;;
4555;SDS011;2290;48.674;9.018;2024-02-21T11:01:33;2.50;;;1.70;;
4555;SDS011;2290;48.674;9.018;2024-02-21T11:04:02;3.17;;;1.70;;
4555;SDS011;2290;48.674;9.018;2024-02-21T11:06:33;3.83;;;1.43;;
4555;SDS011;2290;48.674;9.018;2024-02-21T11:09:04;3.83;;;1.60;;
4555;SDS011;2290;48.674;9.018;2024-02-21T11:14:08;2.40;;;1.53;;
4555;SDS011;2290;48.674;9.018;2024-02-21T11:16:39;3.30;;;1.57;;
4555;SDS011;2290;48.674;9.018;2024-02-21T11:19:08;3.27;;;1.40;;
4555;SDS011;2290;48.674;9.018;2024-02-21T11:21:56;3.00;;;1.50;;
4555;SDS011;2290;48.674;9.018;2024-02-21T11:24:32;7.30;;;1.77;;
4555;SDS011;2290;48.674;9.018;2024-02-21T11:27:15;2.13;;;1.37;;
4555;SDS011;2290;48.674;9.018;2024-02-21T11:29:56;5.50;;;1.60;;
4555;SDS011;2290;48.674;9.018;2024-02-21T11:32:22;2.83;;;1.30;;
4555;SDS011;2290;48.674;9.018;2024-02-21T11:34:54;1.70;;;1.50;;
4555;SDS011;2290;48.674;9.018;2024-02-21T11:37:28;2.10;;;1.30;;
4555;SDS011;2290;48.674;9.018;2024-02-21T11:39:55;3.60;;;1.53;;
4555;SDS011;2290;48.674;9.018;2024-02-21T11:42:21;2.70;;;1.47;;
4555;SDS011;2290;48.674;9.018;2024-02-21T11:44:48;2.47;;;1.60;;
4555;SDS011;2290;48.674;9.018;2024-02-21T11:47:14;2.67;;;1.80;;
4555;SDS011;2290;48.674;9.018;2024-02-21T11:49:46;2.90;;;1.53;;
4555;SDS011;2290;48.674;9.018;2024-02-21T11:52:19;2.30;;;1.73;;
4555;SDS011;2290;48.674;9.018;2024-02-21T11:55:08;4.17;;;1.70;;
4555;SDS011;2290;48.674;9.018;2024-02-21T11:57:33;2.20;;;1.93;;
4555;SDS011;2290;48.674;9.018;2024-02-21T12:00:10;3.63;;;2.10;;
4555;SDS011;2290;48.674;9.018;2024-02-21T12:02:45;2.23;;;1.40;;
4555;SDS011;2290;48.674;9.018;2024-02-21T12:05:13;2.70;;;1.73;;
4555;SDS011;2290;48.674;9.018;2024-02-21T12:07:40;4.90;;;2.07;;
4555;SDS011;2290;48.674;9.018;2024-02-21T12:10:07;2.60;;;1.40;;
4555;SDS011;2290;48.674;9.018;2024-02-21T12:12:36;1.87;;;1.67;;
4555;SDS011;2290;48.674;9.018;2024-02-21T12:15:03;1.60;;;1.30;;
4555;SDS011;2290;48.674;9.018;2024-02-21T12:17:29;2.57;;;1.50;;
4555;SDS011;2290;48.674;9.018;2024-02-21T12:19:56;2.47;;;1.53;;
4555;SDS011;2290;48.674;9.018;2024-02-21T12:22:22;4.40;;;1.40;;
4555;SDS011;2290;48.674;9.018;2024-02-21T12:24:48;6.60;;;2.07;;
4555;SDS011;2290;48.674;9.018;2024-02-21T12:27:13;3.90;;;1.40;;
4555;SDS011;2290;48.674;9.018;2024-02-21T12:29:39;3.10;;;1.20;;
4555;SDS011;2290;48.674;9.018;2024-02-21T12:32:05;1.67;;;1.30;;
4555;SDS011;2290;48.674;9.018;2024-02-21T12:34:30;2.00;;;1.23;;
4555;SDS011;2290;48.674;9.018;2024-02-21T12:36:59;3.23;;;1.40;;
4555;SDS011;2290;48.674;9.018;2024-02-21T12:39:24;3.03;;;1.50;;
4555;SDS011;2290;48.674;9.018;2024-02-21T12:41:54;3.83;;;1.60;;
4555;SDS011;2290;48.674;9.018;2024-02-21T12:44:21;1.70;;;1.60;;
4555;SDS011;2290;48.674;9.018;2024-02-21T12:46:47;2.50;;;1.53;;
4555;SDS011;2290;48.674;9.018;2024-02-21T12:49:18;2.10;;;1.30;;
4555;SDS011;2290;48.674;9.018;2024-02-21T12:51:44;2.50;;;1.40;;
4555;SDS011;2290;48.674;9.018;2024-02-21T12:54:12;1.23;;;1.13;;
4555;SDS011;2290;48.674;9.018;2024-02-21T12:56:39;1.30;;;1.17;;
4555;SDS011;2290;48.674;9.018;2024-02-21T12:59:05;2.33;;;1.30;;
4555;SDS011;2290;48.674;9.018;2024-02-21T13:01:41;3.43;;;1.20;;
4555;SDS011;2290;48.674;9.018;2024-02-21T13:04:08;4.37;;;1.43;;
4555;SDS011;2290;48.674;9.018;2024-02-21T13:06:33;1.73;;;1.10;;
4555;SDS011;2290;48.674;9.018;2024-02-21T13:09:00;2.90;;;1.40;;
4555;SDS011;2290;48.674;9.018;2024-02-21T13:11:28;2.80;;;1.33;;
4555;SDS011;2290;48.674;9.018;2024-02-21T13:13:56;1.70;;;1.20;;
4555;SDS011;2290;48.674;9.018;2024-02-21T13:16:21;4.10;;;1.30;;
4555;SDS011;2290;48.674;9.018;2024-02-21T13:18:48;2.40;;;1.57;;
4555;SDS011;2290;48.674;9.018;2024-02-21T13:21:14;2.00;;;1.40;;
4555;SDS011;2290;48.674;9.018;2024-02-21T13:23:41;5.10;;;1.80;;
4555;SDS011;2290;48.674;9.018;2024-02-21T13:26:09;2.43;;;1.20;;
4555;SDS011;2290;48.674;9.018;2024-02-21T13:28:35;3.87;;;1.27;;
4555;SDS011;2290;48.674;9.018;2024-02-21T13:31:02;2.73;;;1.40;;
4555;SDS011;2290;48.674;9.018;2024-02-21T13:33:28;1.80;;;1.20;;
4555;SDS011;2290;48.674;9.018;2024-02-21T13:35:54;1.93;;;1.27;;
4555;SDS011;2290;48.674;9.018;2024-02-21T13:38:19;2.80;;;1.33;;
4555;SDS011;2290;48.674;9.018;2024-02-21T13:40:45;4.77;;;1.57;;
4555;SDS011;2290;48.674;9.018;2024-02-21T13:43:11;4.03;;;1.57;;
4555;SDS011;2290;48.674;9.018;2024-02-21T13:45:37;2.40;;;1.10;;
4555;SDS011;2290;48.674;9.018;2024-02-21T13:48:03;4.33;;;1.83;;
4555;SDS011;2290;48.674;9.018;2024-02-21T13:50:31;1.43;;;1.17;;
4555;SDS011;2290;48.674;9.018;2024-02-21T13:52:58;1.80;;;1.30;;
4555;SDS011;2290;48.674;9.018;2024-02-21T13:55:23;1.53;;;1.10;;
4555;SDS011;2290;48.674;9.018;2024-02-21T13:57:52;5.17;;;1.30;;
4555;SDS011;2290;48.674;9.018;2024-02-21T14:00:18;2.30;;;1.20;;
4555;SDS011;2290;48.674;9.018;2024-02-21T14:02:45;1.43;;;1.20;;
4555;SDS011;2290;48.674;9.018;2024-02-21T14:05:11;2.20;;;1.47;;
4555;SDS011;2290;48.674;9.018;2024-02-21T14:07:36;1.33;;;1.13;;
4555;SDS011;2290;48.674;9.018;2024-02-21T14:10:02;2.40;;;1.10;;
4555;SDS011;2290;48.674;9.018;2024-02-21T14:12:30;1.90;;;1.23;;
4555;SDS011;2290;48.674;9.018;2024-02-21T14:14:57;4.90;;;1.47;;
4555;SDS011;2290;48.674;9.018;2024-02-21T14:17:23;1.47;;;1.30;;
4555;SDS011;2290;48.674;9.018;2024-02-21T14:19:49;1.10;;;0.97;;
4555;SDS011;2290;48.674;9.018;2024-02-21T14:22:16;2.30;;;1.30;;
4555;SDS011;2290;48.674;9.018;2024-02-21T14:24:43;2.30;;;1.27;;
4555;SDS011;2290;48.674;9.018;2024-02-21T14:27:09;1.37;;;1.10;;
4555;SDS011;2290;48.674;9.018;2024-02-21T14:29:35;2.53;;;1.60;;
4555;SDS011;2290;48.674;9.018;2024-02-21T14:32:02;3.00;;;1.50;;
4555;SDS011;2290;48.674;9.018;2024-02-21T14:34:27;10.77;;;1.50;;
4555;SDS011;2290;48.674;9.018;2024-02-21T14:36:53;2.47;;;1.70;;
4555;SDS011;2290;48.674;9.018;2024-02-21T14:39:19;1.97;;;1.60;;
4555;SDS011;2290;48.674;9.018;2024-02-21T14:41:44;2.67;;;1.60;;
4555;SDS011;2290;48.674;9.018;2024-02-21T14:44:10;1.57;;;1.40;;
4555;SDS011;2290;48.674;9.018;2024-02-21T14:46:36;4.00;;;1.43;;
4555;SDS011;2290;48.674;9.018;2024-02-21T14:49:03;2.03;;;1.33;;
4555;SDS011;2290;48.674;9.018;2024-02-21T14:51:29;1.63;;;1.30;;
4555;SDS011;2290;48.674;9.018;2024-02-21T14:53:56;3.47;;;1.47;;
4555;SDS011;2290;48.674;9.018;2024-02-21T14:56:22;1.97;;;1.43;;
4555;SDS011;2290;48.674;9.018;2024-02-21T14:58:48;2.63;;;1.50;;
4555;SDS011;2290;48.674;9.018;2024-02-21T15:01:14;2.40;;;1.67;;
4555;SDS011;2290;48.674;9.018;2024-02-21T15:03:40;2.17;;;1.40;;
4555;SDS011;2290;48.674;9.018;2024-02-21T15:06:11;1.60;;;1.30;;
4555;SDS011;2290;48.674;9.018;2024-02-21T15:08:38;2.57;;;1.80;;
4555;SDS011;2290;48.674;9.018;2024-02-21T15:11:04;4.60;;;2.70;;
4555;SDS011;2290;48.674;9.018;2024-02-21T15:13:29;3.40;;;1.70;;
4555;SDS011;2290;48.674;9.018;2024-02-21T15:15:59;1.40;;;1.30;;
4555;SDS011;2290;48.674;9.018;2024-02-21T15:18:25;6.30;;;1.60;;
4555;SDS011;2290;48.674;9.018;2024-02-21T15:20:50;2.20;;;1.50;;
4555;SDS011;2290;48.674;9.018;2024-02-21T15:23:16;1.93;;;1.60;;
4555;SDS011;2290;48.674;9.018;2024-02-21T15:25:42;2.33;;;2.13;;
4555;SDS011;2290;48.674;9.018;2024-02-21T15:28:08;4.27;;;1.73;;
4555;SDS011;2290;48.674;9.018;2024-02-21T15:30:35;2.43;;;1.70;;